Flight Track Log - Related Links

Times and Time Zones

All times are in EDT time to prevent confusion due to time zone crossing. See the AWI3704 flight status page for this flight to view local times or setup timezone preferences in your user account.

Time Position Orientation Groundspeed Altitude Reporting Facility
EDT Latitude Longitude Course Direction KTS MPH feet Rate Location/Type
Thu 06:47:25 AM 34.3347 -77.9233 13° North 191 220 2,000  Level Washington Center
Thu 06:48:28 AM 34.3936 -77.9025 16° North 210 242 4,000 2,132 Climbing Washington Center
Thu 06:49:00 AM 34.5677 -77.7714 14° North  Level Estimated
Thu 06:49:26 AM 34.4631 -77.8792 15° North 236 272 6,300  Level Washington Center
Thu 06:50:00 AM 34.6667 -77.7275 North  Level Estimated
Thu 06:50:28 AM 34.5364 -77.8561 15° North 250 288 8,600  Level Washington Center
Thu 06:51:00 AM 34.7657 -77.6835 North  Level Estimated
Thu 06:51:26 AM 34.6119 -77.8303 16° North 268 308 10,500  Level Washington Center
Thu 06:52:00 AM 34.8647 -77.6393 13° North  Level Estimated
Thu 06:52:26 AM 34.6939 -77.7997 17° North 286 329 12,000  Level Washington Center
Thu 06:53:26 AM 34.7800 -77.7717 15° North 301 346 13,900 1,672 Climbing Washington Center
Thu 06:54:28 AM 34.8578 -77.7383 19° North 313 360 15,400 1,700 Climbing Washington Center
Thu 06:55:26 AM 34.9606 -77.7056 15° North 339 390 17,300 1,600 Climbing Washington Center
Thu 06:56:28 AM 35.0531 -77.6700 17° North 344 396 18,600 1,250 Climbing Washington Center
Thu 06:57:26 AM 35.1475 -77.6369 16° North 344 396 19,800 1,210 Climbing Washington Center
Thu 06:58:27 AM 35.2442 -77.6036 16° North 344 396 21,000 1,150 Climbing Washington Center
Thu 06:59:26 AM 35.3447 -77.5681 16° North 349 402 22,100 1,059 Climbing Washington Center
Thu 07:00:26 AM 35.4336 -77.5014 31° Northeast 361 415 23,100 992 Climbing Washington Center
Thu 07:01:27 AM 35.5222 -77.4244 35° Northeast 374 430 24,100 900 Climbing Washington Center
Thu 07:02:26 AM 35.6111 -77.3497 34° Northeast 385 443 24,900 800 Climbing Washington Center
Thu 07:03:27 AM 35.7042 -77.2675 36° Northeast 391 450 25,700 800 Climbing Washington Center
Thu 07:04:26 AM 35.7969 -77.1847 36° Northeast 391 450 26,500 655 Climbing Washington Center
Thu 07:05:26 AM 35.8878 -77.1019 36° Northeast 402 463 27,000 250 Climbing Washington Center
Thu 07:06:26 AM 35.9869 -77.0167 35° Northeast 414 476 27,000  Level Washington Center
Thu 07:07:27 AM 36.0839 -76.9336 35° Northeast 419 482 27,000  Level Washington Center
Thu 07:08:28 AM 36.1767 -76.8478 37° Northeast 419 482 27,000  Level Washington Center
Thu 07:09:26 AM 36.2692 -76.7642 36° Northeast 419 482 27,000  Level Washington Center
Thu 07:10:27 AM 36.3619 -76.6831 35° Northeast 414 476 27,000  Level Washington Center
Thu 07:11:28 AM 36.4522 -76.6017 36° Northeast 409 471 27,000  Level Washington Center
Thu 07:12:28 AM 36.5322 -76.5278 37° Northeast 409 471 27,000  Level Washington Center
Thu 07:13:26 AM 36.6225 -76.4486 35° Northeast 403 464 27,000  Level Washington Center
Thu 07:14:26 AM 36.7128 -76.3667 36° Northeast 403 464 27,000  Level Washington Center
Thu 07:15:27 AM 36.8114 -76.2742 37° Northeast 398 458 27,000  Level Washington Center
Thu 07:16:28 AM 36.9014 -76.1972 34° Northeast 398 458 27,000  Level Washington Center
Thu 07:17:28 AM 36.9956 -76.1511 21° North 393 452 27,000  Level Washington Center
Thu 07:18:27 AM 37.0981 -76.0969 23° Northeast 388 447 27,000  Level Washington Center
Thu 07:19:26 AM 37.1961 -76.0428 24° Northeast 393 452 27,000  Level Washington Center
Thu 07:20:27 AM 37.2964 -75.9914 22° Northeast 393 452 27,000  Level Washington Center
Thu 07:21:28 AM 37.3969 -75.9369 23° Northeast 393 452 27,000  Level Washington Center
Thu 07:22:26 AM 37.4969 -75.8825 23° Northeast 393 452 27,000 -407 Level Washington Center
Thu 07:23:26 AM 37.5931 -75.8172 28° Northeast 393 452 26,200 -893 Descending Washington Center
Thu 07:24:27 AM 37.6872 -75.7492 30° Northeast 393 452 25,200 -689 Descending Washington Center
Thu 07:25:28 AM 37.7853 -75.6786 30° Northeast 398 458 24,800 -793 Descending Washington Center
Thu 07:26:28 AM 37.8769 -75.6075 31° Northeast 398 458 23,600 -1,220 Descending Washington Center
Thu 07:27:26 AM 37.9686 -75.5364 31° Northeast 393 452 22,400 -1,271 Descending Washington Center
Thu 07:28:26 AM 38.0583 -75.4731 29° Northeast 382 440 21,100 -1,240 Descending Washington Center
Thu 07:29:27 AM 38.1458 -75.4094 30° Northeast 372 428 19,900 -1,190 Descending Washington Center
Thu 07:30:27 AM 38.2333 -75.3564 25° Northeast 356 410 18,700 -992 Descending Washington Center
Thu 07:31:28 AM 38.3186 -75.2981 28° Northeast 345 397 17,900 -1,008 Descending Washington Center
Thu 07:32:26 AM 38.4042 -75.2447 26° Northeast 345 397 16,700 -1,220 Descending Washington Center
Thu 07:33:26 AM 38.4936 -75.1886 26° Northeast 345 397 15,500 -843 Descending Washington Center
Thu 07:34:27 AM 38.5872 -75.1294 26° Northeast 356 410 15,000 -246 Descending Washington Center
Thu 07:35:28 AM 38.6850 -75.0678 26° Northeast 368 423 15,000  Level Washington Center
Thu 07:36:26 AM 38.7933 -75.0536 North 374 430 15,000  Level Washington Center
Thu 07:37:27 AM 38.8994 -75.0447 North 381 438 15,000 -446 Level Washington Center
Thu 07:38:27 AM 39.0058 -75.0306 North 381 438 14,100 -1,349 Descending Washington Center
Thu 07:40:16 AM 39.2000 -75.0167 North 315 362 11,200 -1,472 Descending Philadelphia TRACON
Thu 07:41:10 AM 39.2667 -75.0000 11° North 291 335 10,100 -1,100 Descending Philadelphia TRACON
Thu 07:42:16 AM 39.3500 -75.0167 351° North 278 320 9,000 -1,000 Descending Philadelphia TRACON
Thu 07:43:10 AM 39.4167 -75.0333 349° North 280 322 8,100 -1,526 Descending Philadelphia TRACON
Thu 07:44:10 AM 39.5000 -75.0667 343° North 278 320 6,100 -1,000 Descending Philadelphia TRACON
Thu 07:45:16 AM 39.5667 -75.1000 339° North 266 306 6,000 -905 Descending Philadelphia TRACON
Thu 07:46:16 AM 39.6500 -75.1333 343° North 266 306 4,200 -1,947 Descending Philadelphia TRACON
Thu 07:47:10 AM 39.7167 -75.1500 349° North 264 304 2,300 -1,150 Descending Philadelphia TRACON
Thu 07:48:16 AM 39.7667 -75.1833 333° Northwest 194 223 1,900 -476 Descending Philadelphia TRACON
Thu 07:49:16 AM 39.8167 -75.2000 346° North 169 194 1,300 -667 Descending Philadelphia TRACON
Thu 07:50:04 AM 39.8500 -75.2167 339° North 144 166 700 -750 Descending Philadelphia TRACON

Login

Don't have an account? Register now (free) for customized features, flight alerts, and more!